Time;durP1;ratioP1;P1;durP2;ratioP2;P2;SDS_P1;SDS_P2;PMS_P1;PMS_P2;Temp;Humidity;BMP_temperature;BMP_pressure;BME280_temperature;BME280_humidity;BME280_pressure;Samples;Min_cycle;Max_cycle;Signal;HPM_P1;HPM_P2
2024/04/15 00:02:23;;;;;;;5.10;4.40;;;;;;;13.86;86.47;98963.91;107213;1260;71822;-39
2024/04/15 00:04:50;;;;;;;7.10;4.20;;;;;;;13.63;86.43;98932.07;107222;1257;61355;-39
2024/04/15 00:07:18;;;;;;;6.60;4.10;;;;;;;13.85;86.42;98966.70;107235;1258;60881;-39
2024/04/15 00:09:45;;;;;;;6.10;4.10;;;;;;;13.84;86.42;98969.27;107266;1258;73658;-39
2024/04/15 00:12:13;;;;;;;9.10;4.40;;;;;;;13.84;86.36;98974.51;107212;1258;67622;-39
2024/04/15 00:14:40;;;;;;;9.30;4.40;;;;;;;13.84;86.01;98974.89;107222;1258;72689;-39
2024/04/15 00:17:08;;;;;;;5.90;4.70;;;;;;;13.81;85.89;98975.42;107236;1263;61769;-39
2024/04/15 00:19:35;;;;;;;5.90;4.20;;;;;;;13.79;85.69;98974.73;107227;1257;61259;-39
2024/04/15 00:22:03;;;;;;;7.20;4.80;;;;;;;13.77;85.61;98973.48;107184;1258;74644;-39
2024/04/15 00:24:30;;;;;;;5.70;4.40;;;;;;;13.75;85.57;98978.00;107188;1257;67632;-39
2024/04/15 00:26:58;;;;;;;8.00;5.00;;;;;;;13.69;85.61;98980.65;107212;1260;71497;-39
2024/04/15 00:29:26;;;;;;;7.20;4.80;;;;;;;13.63;85.83;98985.47;107270;1259;61266;-39
2024/04/15 00:31:53;;;;;;;8.00;4.40;;;;;;;13.62;85.88;98981.03;107238;1257;61174;-39
2024/04/15 00:34:22;;;;;;;6.50;4.50;;;;;;;13.66;85.86;98983.06;107206;1263;74649;-39
2024/04/15 00:36:49;;;;;;;6.30;4.70;;;;;;;13.66;85.73;98988.73;107253;1258;68108;-39
2024/04/15 00:39:17;;;;;;;7.70;4.50;;;;;;;13.62;85.29;98991.86;107314;1258;73150;-38
2024/04/15 00:41:44;;;;;;;6.00;3.50;;;;;;;13.52;84.29;98995.81;107286;1263;61202;-38
2024/04/15 00:44:12;;;;;;;6.90;3.30;;;;;;;13.42;82.64;98999.30;107250;1258;61337;-38
2024/04/15 00:46:40;;;;;;;4.60;2.80;;;;;;;13.38;79.42;99004.04;107232;1257;74658;-39
2024/04/15 00:49:09;;;;;;;5.90;2.90;;;;;;;13.32;75.51;99006.66;107090;1257;66322;-38
2024/04/15 00:51:38;;;;;;;5.80;3.20;;;;;;;13.22;75.74;99004.86;107140;1261;72672;-39
2024/04/15 00:54:05;;;;;;;5.10;3.00;;;;;;;13.19;76.04;99000.65;107187;1258;61093;-39
2024/04/15 00:56:32;;;;;;;5.00;3.20;;;;;;;13.20;76.30;99002.29;107229;1261;61094;-39
2024/04/15 00:59:00;;;;;;;4.50;3.20;;;;;;;13.20;76.60;99007.81;107228;1257;73431;-39
2024/04/15 01:01:27;;;;;;;7.20;3.30;;;;;;;13.22;76.93;99009.67;106974;1257;66305;-39
2024/04/15 01:03:55;;;;;;;6.40;3.70;;;;;;;13.23;77.22;99013.33;107170;1261;72726;-39
2024/04/15 01:06:24;;;;;;;6.00;3.50;;;;;;;13.21;77.83;99019.25;107209;1258;61227;-39
2024/04/15 01:08:51;;;;;;;7.60;3.60;;;;;;;13.18;78.15;99016.04;107212;1255;61248;-38
2024/04/15 01:11:19;;;;;;;6.70;3.50;;;;;;;13.13;78.36;99017.35;107196;1262;75199;-38
2024/04/15 01:13:46;;;;;;;9.50;3.10;;;;;;;13.08;78.02;99021.11;107230;1262;67632;-38
2024/04/15 01:16:14;;;;;;;3.10;2.60;;;;;;;13.01;76.86;99025.06;107191;1258;72669;-39
2024/04/15 01:18:42;;;;;;;5.20;2.70;;;;;;;12.91;75.28;99026.27;107219;1262;61181;-38
2024/04/15 01:21:09;;;;;;;4.80;2.70;;;;;;;12.78;74.30;99026.45;107224;1257;61159;-38
2024/04/15 01:23:38;;;;;;;6.50;2.60;;;;;;;12.64;73.57;99030.18;107194;1257;73392;-38
2024/04/15 01:26:05;;;;;;;5.40;2.60;;;;;;;12.52;72.97;99026.08;107284;1257;66311;-38
2024/04/15 01:28:32;;;;;;;6.70;2.50;;;;;;;12.41;72.28;99026.32;107220;1262;71383;-38
2024/04/15 01:31:00;;;;;;;5.30;2.50;;;;;;;12.29;71.77;99019.80;107201;1261;61052;-38
2024/04/15 01:33:28;;;;;;;4.50;2.50;;;;;;;12.17;71.52;99014.83;107249;1258;61184;-38
2024/04/15 01:35:55;;;;;;;5.30;2.10;;;;;;;12.14;70.89;99012.64;107187;1262;73443;-38
2024/04/15 01:38:22;;;;;;;4.40;2.40;;;;;;;12.10;70.63;99014.55;107225;1256;66286;-38
2024/04/15 01:40:50;;;;;;;5.00;2.10;;;;;;;12.06;70.80;99010.23;107246;1257;71773;-39
2024/04/15 01:43:17;;;;;;;5.90;2.50;;;;;;;12.06;70.75;99013.19;107156;1257;60960;-39
2024/04/15 01:45:45;;;;;;;8.60;2.80;;;;;;;12.05;70.68;99007.68;107087;1263;61144;-38
2024/04/15 01:48:13;;;;;;;3.30;2.40;;;;;;;12.03;70.32;99005.58;107076;1262;74813;-38
2024/04/15 01:50:40;;;;;;;3.90;2.40;;;;;;;11.99;69.67;99000.80;107016;1257;66282;-38
2024/04/15 01:53:11;;;;;;;3.60;2.40;;;;;;;11.92;69.33;99003.94;106986;1258;71111;-38
2024/04/15 01:55:38;;;;;;;4.60;2.40;;;;;;;11.85;69.09;99001.55;107096;1260;61165;-39
2024/04/15 01:58:06;;;;;;;5.70;2.40;;;;;;;11.80;69.24;99000.89;107261;1258;61122;-39
2024/04/15 02:00:34;;;;;;;3.20;2.00;;;;;;;11.74;69.22;98990.75;107040;1257;74684;-39
2024/04/15 02:03:02;;;;;;;5.30;2.10;;;;;;;11.74;69.21;98985.48;107050;1258;67959;-39
2024/04/15 02:05:29;;;;;;;5.10;2.00;;;;;;;11.76;68.97;98992.09;107049;1257;71717;-38
2024/04/15 02:07:57;;;;;;;5.40;1.90;;;;;;;11.72;68.62;98987.07;107058;1263;61266;-39
2024/04/15 02:10:24;;;;;;;4.50;2.30;;;;;;;11.67;68.45;98990.20;107061;1258;61372;-39
2024/04/15 02:12:52;;;;;;;6.60;2.20;;;;;;;11.62;68.21;98988.14;107048;1257;74634;-40
2024/04/15 02:15:20;;;;;;;2.90;2.20;;;;;;;11.56;68.16;98984.52;107162;1258;66987;-39
2024/04/15 02:17:47;;;;;;;5.90;2.50;;;;;;;11.48;68.31;98982.60;107052;1257;72822;-39
2024/04/15 02:20:15;;;;;;;4.00;2.40;;;;;;;11.40;68.70;98980.65;107053;1258;61231;-39
2024/04/15 02:22:42;;;;;;;4.20;2.10;;;;;;;11.32;68.97;98978.41;107050;1258;61177;-39
2024/04/15 02:25:10;;;;;;;3.80;2.30;;;;;;;11.23;69.11;98981.35;107050;1257;74630;-39
2024/04/15 02:27:37;;;;;;;5.70;2.40;;;;;;;11.15;69.39;98980.48;107061;1257;67629;-38
2024/04/15 02:30:07;;;;;;;3.10;1.90;;;;;;;11.11;69.27;98981.91;106984;1257;72658;-39
2024/04/15 02:32:34;;;;;;;2.40;1.50;;;;;;;11.14;69.22;98989.85;107094;1257;61182;-39
2024/04/15 02:35:02;;;;;;;3.10;1.90;;;;;;;11.10;69.17;98987.94;107037;1258;61087;-39
2024/04/15 02:37:29;;;;;;;3.10;1.90;;;;;;;11.04;68.94;98992.77;107039;1257;74646;-39
2024/04/15 02:39:56;;;;;;;4.70;1.90;;;;;;;10.97;68.51;98995.16;107031;1257;66413;-39
2024/04/15 02:42:24;;;;;;;3.80;2.10;;;;;;;10.88;68.40;98992.52;107069;1258;71733;-39
2024/04/15 02:44:51;;;;;;;3.60;2.20;;;;;;;10.82;68.35;99000.11;107069;1263;61247;-39
2024/04/15 02:47:20;;;;;;;4.00;1.90;;;;;;;10.74;68.41;98998.70;107098;1257;61234;-38
2024/04/15 02:49:47;;;;;;;4.80;2.10;;;;;;;10.64;68.32;98998.95;107282;1257;74667;-39
2024/04/15 02:52:15;;;;;;;9.20;2.70;;;;;;;10.55;68.09;99006.13;107233;1258;67598;-39
2024/04/15 02:54:42;;;;;;;3.90;1.90;;;;;;;10.45;67.87;99009.95;107235;1257;72662;-39
2024/04/15 02:57:10;;;;;;;5.50;2.10;;;;;;;10.36;67.81;99011.98;107216;1263;61413;-39
2024/04/15 02:59:38;;;;;;;3.90;1.90;;;;;;;10.27;67.79;99008.38;107229;1257;61317;-39
2024/04/15 03:02:06;;;;;;;5.60;2.00;;;;;;;10.19;67.87;99012.35;107170;1258;73405;-39
2024/04/15 03:04:33;;;;;;;2.20;1.60;;;;;;;10.18;67.97;99014.96;107242;1258;66258;-39
2024/04/15 03:07:01;;;;;;;3.00;2.00;;;;;;;10.13;67.66;98998.33;107122;1257;71716;-38
2024/04/15 03:09:28;;;;;;;4.40;1.90;;;;;;;10.17;67.72;99015.56;107148;1258;61343;-38
2024/04/15 03:11:55;;;;;;;3.20;2.00;;;;;;;10.13;67.48;99015.17;107103;1262;61234;-38
2024/04/15 03:14:24;;;;;;;3.60;1.70;;;;;;;10.09;67.14;99015.90;107166;1261;74668;-38
2024/04/15 03:16:52;;;;;;;5.10;2.00;;;;;;;10.07;67.03;99013.62;107227;1257;67900;-38
2024/04/15 03:19:19;;;;;;;2.50;1.70;;;;;;;10.02;66.87;99018.58;107113;1257;72669;-38
2024/04/15 03:21:48;;;;;;;3.60;2.20;;;;;;;9.97;66.75;99016.88;107121;1258;61148;-38
2024/04/15 03:24:16;;;;;;;2.80;1.80;;;;;;;9.91;66.63;99019.25;107264;1257;61202;-38
2024/04/15 03:26:43;;;;;;;5.30;2.00;;;;;;;9.84;66.58;99025.24;107239;1257;74635;-38
2024/04/15 03:29:11;;;;;;;3.30;1.70;;;;;;;9.76;66.44;99023.73;107262;1257;66111;-38
2024/04/15 03:31:38;;;;;;;3.90;2.00;;;;;;;9.71;66.40;99020.70;107237;1257;72674;-37
2024/04/15 03:34:05;;;;;;;3.50;1.80;;;;;;;9.63;66.29;99015.23;107228;1263;60451;-38
2024/04/15 03:36:33;;;;;;;3.80;1.90;;;;;;;9.53;66.27;99017.22;107243;1257;61156;-38
2024/04/15 03:39:00;;;;;;;2.40;1.50;;;;;;;9.44;66.41;99016.60;107228;1257;74670;-37
2024/04/15 03:41:28;;;;;;;2.40;1.70;;;;;;;9.39;66.54;99015.58;107228;1257;68553;-38
2024/04/15 03:43:55;;;;;;;4.40;2.10;;;;;;;9.38;66.60;99013.64;107204;1260;71053;-38
2024/04/15 03:46:23;;;;;;;3.90;2.00;;;;;;;9.43;66.72;99011.64;107187;1257;61253;-39
2024/04/15 03:48:50;;;;;;;4.10;1.80;;;;;;;9.44;66.89;99006.64;107169;1257;61164;-39
2024/04/15 03:51:18;;;;;;;2.60;1.80;;;;;;;9.45;67.40;99004.34;107042;1257;211542;-39
2024/04/15 03:55:59;;;;;;;4.40;2.00;;;;;;;9.51;68.33;98993.91;104379;1295;600248;-38
2024/04/15 03:58:27;;;;;;;3.50;1.70;;;;;;;9.52;68.43;98998.34;106702;1266;59647;-38
2024/04/15 04:01:04;;;;;;;4.10;1.90;;;;;;;9.53;68.52;98995.52;106605;1264;60042;-38
2024/04/15 04:03:32;;;;;;;5.00;1.90;;;;;;;9.54;68.58;98993.96;106673;1270;73078;-38
2024/04/15 04:05:59;;;;;;;3.40;1.80;;;;;;;9.55;68.76;98992.66;106653;1269;67134;-38
2024/04/15 04:08:39;;;;;;;5.90;1.90;;;;;;;9.57;68.92;98991.94;106557;1267;189653;-37
2024/04/15 04:11:07;;;;;;;4.60;1.90;;;;;;;9.66;68.59;98998.65;106914;1267;61717;-37
2024/04/15 04:13:35;;;;;;;3.80;1.80;;;;;;;9.74;68.46;98998.48;106893;1264;59500;-37
2024/04/15 04:16:04;;;;;;;4.80;1.70;;;;;;;9.79;68.52;99002.89;106877;1264;73089;-37
2024/04/15 04:18:31;;;;;;;5.20;2.20;;;;;;;9.82;68.50;99003.16;106907;1264;67919;-37
2024/04/15 04:20:59;;;;;;;3.50;1.80;;;;;;;9.84;67.86;99003.05;107052;1260;72671;-37
2024/04/15 04:23:27;;;;;;;3.40;1.70;;;;;;;9.88;66.16;99009.63;107041;1258;60499;-37
2024/04/15 04:25:54;;;;;;;2.40;1.70;;;;;;;9.91;65.52;99007.58;107039;1259;60318;-37
2024/04/15 04:28:21;;;;;;;3.40;1.50;;;;;;;9.92;64.95;99008.43;107067;1260;73855;-37
2024/04/15 04:30:49;;;;;;;5.60;1.50;;;;;;;9.88;63.31;99009.53;107057;1263;67606;-37
2024/04/15 04:33:18;;;;;;;3.20;2.00;;;;;;;9.85;64.08;99008.88;107012;1260;72978;-37
2024/04/15 04:35:46;;;;;;;4.60;1.80;;;;;;;9.87;64.93;99000.23;107023;1261;60457;-37
2024/04/15 04:38:13;;;;;;;2.60;1.50;;;;;;;9.90;65.26;98998.28;107040;1260;59234;-37
2024/04/15 04:40:40;;;;;;;3.70;2.00;;;;;;;9.93;65.16;98996.46;107044;1260;72606;-37
2024/04/15 04:43:08;;;;;;;3.90;1.80;;;;;;;9.97;63.89;99000.39;107013;1260;67589;-37
2024/04/15 04:45:35;;;;;;;3.80;1.70;;;;;;;10.00;63.25;99001.29;106882;1266;72646;-37
2024/04/15 04:48:03;;;;;;;5.50;2.00;;;;;;;10.05;62.89;98996.95;106969;1260;59702;-37
2024/04/15 04:50:31;;;;;;;3.30;1.80;;;;;;;10.11;62.10;98991.38;107092;1260;60280;-37
2024/04/15 04:53:00;;;;;;;5.20;1.70;;;;;;;10.16;61.12;98988.21;107020;1260;74361;-37
2024/04/15 04:55:28;;;;;;;3.10;1.50;;;;;;;10.22;60.76;98982.60;106925;1261;67665;-37
2024/04/15 04:57:55;;;;;;;3.30;1.60;;;;;;;10.30;60.37;98981.55;106927;1260;72660;-37
2024/04/15 05:00:23;;;;;;;3.80;2.00;;;;;;;10.36;59.96;98976.98;106981;1260;60380;-37
2024/04/15 05:02:50;;;;;;;2.60;1.80;;;;;;;10.42;60.06;98967.39;106942;1261;61099;-38
2024/04/15 05:05:18;;;;;;;5.10;1.80;;;;;;;10.49;60.11;98965.92;106922;1261;73855;-38
2024/04/15 05:07:45;;;;;;;5.90;1.90;;;;;;;10.55;59.83;98963.08;106964;1264;67590;-38
2024/04/15 05:10:13;;;;;;;2.60;1.60;;;;;;;10.61;60.34;98968.09;106998;1266;74828;-38
2024/04/15 05:12:41;;;;;;;2.30;1.30;;;;;;;10.67;59.89;98963.05;106996;1260;62235;-38
2024/04/15 05:15:09;;;;;;;3.80;1.80;;;;;;;10.74;60.21;98969.17;106948;1265;61352;-38
2024/04/15 05:17:36;;;;;;;3.40;1.50;;;;;;;10.80;60.29;98961.98;106968;1265;72751;-38
2024/04/15 05:20:05;;;;;;;3.00;1.60;;;;;;;10.86;59.65;98955.60;106992;1260;68323;-38
2024/04/15 05:22:32;;;;;;;3.50;1.30;;;;;;;10.95;58.61;98952.06;107023;1261;72087;-38
2024/04/15 05:25:00;;;;;;;4.00;1.40;;;;;;;11.05;57.85;98953.71;106912;1267;60450;-38
2024/04/15 05:27:27;;;;;;;3.20;1.40;;;;;;;11.14;55.07;98952.17;107002;1260;59678;-38
2024/04/15 05:29:55;;;;;;;3.90;1.30;;;;;;;11.21;54.74;98951.94;106981;1265;76033;-38
2024/04/15 05:32:22;;;;;;;2.70;1.50;;;;;;;11.28;53.61;98945.66;107004;1261;70154;-38
2024/04/15 05:34:50;;;;;;;3.00;1.40;;;;;;;11.36;52.49;98944.02;107002;1261;71865;-38
2024/04/15 05:37:17;;;;;;;3.70;1.30;;;;;;;11.41;53.24;98939.26;106968;1265;60508;-38
2024/04/15 05:39:44;;;;;;;2.40;1.20;;;;;;;11.50;53.74;98941.42;107010;1260;60317;-38
2024/04/15 05:42:15;;;;;;;3.40;1.50;;;;;;;11.59;51.88;98938.55;106932;1260;72730;-38
2024/04/15 05:44:42;;;;;;;5.60;1.30;;;;;;;11.68;49.66;98947.54;106762;1260;68447;-38
2024/04/15 05:47:10;;;;;;;3.30;1.50;;;;;;;11.77;49.46;98950.34;106964;1261;72599;-38
2024/04/15 05:49:37;;;;;;;4.00;1.60;;;;;;;11.85;50.59;98952.27;107017;1262;60398;-38
2024/04/15 05:52:05;;;;;;;3.60;1.90;;;;;;;11.93;50.72;98950.00;107039;1261;60453;-38
2024/04/15 05:54:33;;;;;;;3.80;1.40;;;;;;;12.04;50.69;98941.77;107001;1261;72767;-39
2024/04/15 05:57:01;;;;;;;3.10;1.50;;;;;;;12.14;51.60;98939.27;106973;1266;70259;-38
2024/04/15 05:59:29;;;;;;;4.80;2.10;;;;;;;12.23;51.15;98936.44;106982;1261;74815;-38
2024/04/15 06:01:57;;;;;;;4.10;1.80;;;;;;;12.33;51.01;98944.10;107006;1260;62175;-38
2024/04/15 06:04:25;;;;;;;3.80;1.40;;;;;;;12.41;50.30;98947.17;106952;1260;60303;-38
2024/04/15 06:06:53;;;;;;;4.60;1.70;;;;;;;12.49;48.18;98943.80;106993;1265;73914;-38
2024/04/15 06:09:21;;;;;;;4.60;1.30;;;;;;;12.59;45.92;98946.24;106961;1260;68470;-38
2024/04/15 06:11:48;;;;;;;4.70;1.40;;;;;;;12.68;46.15;98946.66;106964;1260;71920;-38
2024/04/15 06:14:16;;;;;;;4.70;1.50;;;;;;;12.76;46.55;98947.33;106957;1261;60462;-38
2024/04/15 06:16:43;;;;;;;4.40;1.80;;;;;;;12.85;48.08;98943.53;106992;1261;62219;-38
2024/04/15 06:19:11;;;;;;;3.80;1.90;;;;;;;12.94;49.52;98942.23;106985;1261;72458;-38
2024/04/15 06:21:39;;;;;;;7.80;2.00;;;;;;;13.03;50.30;98939.31;107001;1260;70199;-38
2024/04/15 06:24:06;;;;;;;5.40;2.40;;;;;;;13.09;51.48;98935.05;106971;1265;74891;-38
2024/04/15 06:26:37;;;;;;;4.70;2.20;;;;;;;13.13;52.77;98929.64;107075;1257;60405;-38
2024/04/15 06:29:04;;;;;;;5.30;2.50;;;;;;;13.21;54.73;98926.92;107271;1260;60406;-39
2024/04/15 06:31:32;;;;;;;4.20;2.40;;;;;;;13.29;57.04;98920.80;107227;1257;76251;-38
2024/04/15 06:34:00;;;;;;;9.20;2.90;;;;;;;13.36;58.69;98919.79;107209;1258;70338;-38
2024/04/15 06:36:28;;;;;;;5.10;3.40;;;;;;;13.43;60.29;98916.75;107267;1257;73775;-39
2024/04/15 06:38:55;;;;;;;11.50;3.70;;;;;;;13.54;61.19;98914.57;107211;1257;60139;-38
2024/04/15 06:41:23;;;;;;;9.60;3.60;;;;;;;13.67;61.90;98912.31;107245;1257;60382;-38
2024/04/15 06:43:50;;;;;;;9.30;3.80;;;;;;;13.80;62.57;98913.62;107209;1257;73993;-38
2024/04/15 06:46:18;;;;;;;5.00;3.50;;;;;;;13.88;63.39;98914.46;107261;1257;67739;-38
2024/04/15 06:48:45;;;;;;;7.00;3.40;;;;;;;13.97;63.87;98903.23;107249;1257;71429;-38
2024/04/15 06:51:13;;;;;;;8.20;3.80;;;;;;;14.09;62.78;98902.19;107193;1257;59147;-38
2024/04/15 06:53:41;;;;;;;6.50;3.70;;;;;;;14.16;61.86;98895.01;107238;1257;60479;-39
2024/04/15 06:56:10;;;;;;;5.40;2.50;;;;;;;14.24;61.22;98894.45;107228;1257;76067;-38
2024/04/15 06:58:38;;;;;;;5.00;3.40;;;;;;;14.29;61.75;98899.56;107264;1257;65799;-38
2024/04/15 07:01:06;;;;;;;10.10;4.10;;;;;;;14.36;62.86;98899.86;107234;1257;74650;-38
2024/04/15 07:03:33;;;;;;;7.30;3.80;;;;;;;14.44;63.41;98897.52;107140;1256;60463;-38
2024/04/15 07:06:01;;;;;;;4.80;3.30;;;;;;;14.56;63.08;98904.01;107091;1256;60261;-38
2024/04/15 07:08:28;;;;;;;5.50;3.50;;;;;;;14.67;63.38;98900.20;107086;1255;74037;-38
2024/04/15 07:10:56;;;;;;;6.80;3.40;;;;;;;14.76;63.43;98893.08;107097;1262;68380;-38
2024/04/15 07:13:24;;;;;;;10.00;3.70;;;;;;;14.82;61.62;98887.58;107198;1257;71498;-38
2024/04/15 07:15:51;;;;;;;4.40;3.10;;;;;;;14.90;60.80;98886.67;107216;1257;60565;-38
2024/04/15 07:18:19;;;;;;;9.10;3.70;;;;;;;14.95;60.37;98884.46;107223;1257;60512;-38
2024/04/15 07:20:46;;;;;;;7.20;3.10;;;;;;;14.97;60.09;98878.44;107228;1257;73087;-38
2024/04/15 07:23:14;;;;;;;10.30;3.30;;;;;;;15.00;57.05;98879.59;107235;1257;70246;-39
2024/04/15 07:25:42;;;;;;;5.70;2.90;;;;;;;15.03;55.65;98878.64;107201;1257;71522;-39
2024/04/15 07:28:10;;;;;;;7.00;3.20;;;;;;;15.05;54.41;98870.35;107212;1257;60543;-39
2024/04/15 07:30:39;;;;;;;5.00;2.90;;;;;;;15.04;54.92;98869.12;107230;1255;61004;-39
2024/04/15 07:33:06;;;;;;;5.50;3.10;;;;;;;15.05;54.38;98867.33;107223;1257;71637;-39
2024/04/15 07:35:35;;;;;;;7.10;2.50;;;;;;;15.06;53.19;98862.78;107259;1257;68096;-39
2024/04/15 07:38:03;;;;;;;5.60;2.50;;;;;;;15.08;48.54;98852.54;107242;1257;75098;-39
2024/04/15 07:40:31;;;;;;;4.30;2.30;;;;;;;15.11;47.62;98854.00;107219;1256;60455;-39
2024/04/15 07:42:59;;;;;;;4.00;2.30;;;;;;;15.13;48.01;98845.56;107227;1257;59126;-39
2024/04/15 07:45:26;;;;;;;5.30;2.70;;;;;;;15.20;48.56;98842.85;107196;1258;76085;-39
2024/04/15 07:47:54;;;;;;;9.10;2.80;;;;;;;15.30;48.10;98842.15;107086;1257;66771;-39
2024/04/15 07:50:21;;;;;;;6.20;2.60;;;;;;;15.38;48.31;98837.55;107114;1257;71464;-39
2024/04/15 07:52:49;;;;;;;6.60;2.30;;;;;;;15.42;47.33;98840.72;107180;1257;60458;-39
2024/04/15 07:55:16;;;;;;;5.50;2.20;;;;;;;15.46;46.86;98837.23;107243;1257;60573;-39
2024/04/15 07:57:45;;;;;;;5.60;2.60;;;;;;;15.56;47.82;98829.61;107257;1256;74182;-39
2024/04/15 08:00:13;;;;;;;7.10;2.70;;;;;;;15.70;45.94;98830.80;107215;1255;66621;-39
2024/04/15 08:02:42;;;;;;;5.80;2.60;;;;;;;15.80;46.00;98824.13;107238;1258;73062;-39
2024/04/15 08:05:10;;;;;;;6.10;2.30;;;;;;;15.93;45.45;98826.34;107235;1257;61253;-39
2024/04/15 08:07:38;;;;;;;8.40;2.40;;;;;;;16.03;43.91;98823.33;107253;1256;61108;-39
2024/04/15 08:10:06;;;;;;;8.90;2.00;;;;;;;16.12;44.29;98830.56;107273;1261;77168;-39
2024/04/15 08:12:34;;;;;;;7.00;2.40;;;;;;;16.27;44.15;98828.67;107212;1255;70237;-39
2024/04/15 08:15:02;;;;;;;3.80;1.70;;;;;;;16.41;43.70;98829.50;107223;1258;71877;-39
2024/04/15 08:17:29;;;;;;;3.60;2.10;;;;;;;16.57;43.92;98828.91;107310;1258;61329;-39
2024/04/15 08:19:57;;;;;;;4.60;2.00;;;;;;;16.70;42.30;98821.70;107203;1258;62219;-39
2024/04/15 08:22:24;;;;;;;4.30;2.20;;;;;;;16.77;42.42;98820.81;107234;1257;73454;-39
2024/04/15 08:24:52;;;;;;;5.90;1.90;;;;;;;16.78;41.70;98818.69;107213;1257;66678;-39
2024/04/15 08:27:24;;;;;;;9.50;2.20;;;;;;;16.73;42.18;98819.94;107231;1258;73075;-39
2024/04/15 08:29:52;;;;;;;6.40;2.10;;;;;;;16.67;42.33;98823.48;107216;1257;61352;-39
2024/04/15 08:32:19;;;;;;;6.10;2.20;;;;;;;16.60;41.90;98825.60;107197;1256;61199;-39
2024/04/15 08:34:47;;;;;;;6.00;1.90;;;;;;;16.49;42.42;98830.19;107151;1257;73433;-39
2024/04/15 08:37:17;;;;;;;8.10;2.10;;;;;;;16.41;43.06;98839.52;107198;1260;70216;-38
2024/04/15 08:39:45;;;;;;;9.60;2.40;;;;;;;16.34;43.35;98831.77;107048;1260;74868;-38
2024/04/15 08:42:19;;;;;;;7.80;2.10;;;;;;;16.29;43.55;98838.02;107223;1257;61317;-37
2024/04/15 08:44:48;;;;;;;6.70;2.10;;;;;;;16.25;42.80;98835.41;107222;1257;60254;-37
2024/04/15 08:47:23;;;;;;;5.40;2.10;;;;;;;16.18;43.05;98833.39;107211;1257;76076;-37
2024/04/15 08:49:50;;;;;;;6.40;2.10;;;;;;;16.13;43.91;98832.20;107310;1257;67059;-38
2024/04/15 08:52:18;;;;;;;6.10;2.00;;;;;;;16.12;43.30;98827.60;107093;1257;70556;-38
2024/04/15 08:54:46;;;;;;;4.20;1.60;;;;;;;16.12;43.43;98828.23;106988;1257;61194;-38
2024/04/15 08:57:13;;;;;;;3.00;1.80;;;;;;;16.10;43.35;98834.81;107084;1257;61391;-38
2024/04/15 08:59:43;;;;;;;4.30;1.60;;;;;;;16.04;43.20;98842.84;107250;1256;73512;-38
2024/04/15 09:02:13;;;;;;;1.90;1.20;;;;;;;15.93;42.85;98848.20;107288;1257;66839;-38
2024/04/15 09:04:41;;;;;;;5.60;2.00;;;;;;;15.79;43.29;98855.61;107221;1257;71568;-38
2024/04/15 09:07:09;;;;;;;11.50;1.90;;;;;;;15.65;43.71;98857.40;107308;1257;61217;-38
2024/04/15 09:09:37;;;;;;;10.90;2.00;;;;;;;15.55;44.44;98856.70;107235;1255;60383;-38
2024/04/15 09:12:05;;;;;;;7.30;2.00;;;;;;;15.48;44.32;98844.96;107160;1257;74796;-38
2024/04/15 09:14:32;;;;;;;5.70;2.00;;;;;;;15.43;44.43;98845.86;107158;1256;66851;-38
2024/04/15 09:17:03;;;;;;;5.50;1.60;;;;;;;15.40;44.32;98853.55;107145;1261;73572;-39
2024/04/15 09:19:34;;;;;;;5.30;2.10;;;;;;;15.37;44.51;98855.44;107206;1257;60375;-39
2024/04/15 09:22:02;;;;;;;8.80;2.10;;;;;;;15.33;44.03;98854.23;107205;1257;61284;-39
2024/04/15 09:24:30;;;;;;;4.00;1.80;;;;;;;15.30;44.73;98854.17;107141;1256;73582;-39
2024/04/15 09:26:57;;;;;;;6.30;1.80;;;;;;;15.28;44.91;98854.27;107183;1262;68087;-39
2024/04/15 09:29:25;;;;;;;4.00;1.80;;;;;;;15.24;43.62;98852.05;107196;1258;72131;-39
2024/04/15 09:31:55;;;;;;;5.20;1.80;;;;;;;15.18;44.23;98840.99;107140;1257;60637;-39
2024/04/15 09:34:23;;;;;;;4.80;1.70;;;;;;;15.13;44.60;98834.09;107304;1257;61235;-39
2024/04/15 09:36:57;;;;;;;5.00;1.80;;;;;;;15.08;45.05;98830.70;107255;1257;76815;-38
2024/04/15 09:39:25;;;;;;;5.70;2.00;;;;;;;15.03;45.07;98828.88;107262;1257;68059;-38
2024/04/15 09:41:54;;;;;;;;;;;;;;;14.99;45.47;98829.93;107303;1256;73899;-38
2024/04/15 09:44:22;;;;;;;7.80;1.90;;;;;;;14.95;45.30;98821.60;107085;1257;61253;-38
2024/04/15 09:46:50;;;;;;;6.70;2.20;;;;;;;14.91;45.10;98820.53;107068;1256;61334;-38
2024/04/15 09:49:18;;;;;;;4.60;1.60;;;;;;;14.89;45.15;98819.77;107218;1257;74521;-38
2024/04/15 09:51:45;;;;;;;5.20;1.70;;;;;;;14.87;45.62;98812.77;107200;1257;66852;-38
2024/04/15 09:54:16;;;;;;;6.30;2.00;;;;;;;14.86;46.11;98814.50;107077;1257;71868;-39
2024/04/15 09:56:47;;;;;;;;;;;;;;;14.86;46.23;98815.52;107217;1262;60483;-39
2024/04/15 09:59:15;;;;;;;4.50;1.50;;;;;;;14.87;45.99;98824.45;107257;1263;61936;-39
2024/04/15 10:01:43;;;;;;;5.50;2.00;;;;;;;14.86;46.02;98819.56;107200;1262;76931;-39
2024/04/15 10:04:21;;;;;;;7.00;1.90;;;;;;;14.87;46.30;98811.45;107142;1257;66719;-39
2024/04/15 10:06:53;;;;;;;2.80;1.50;;;;;;;14.88;46.53;98798.57;107200;1257;73217;-39
2024/04/15 10:09:21;;;;;;;5.70;1.90;;;;;;;14.91;46.68;98791.29;107193;1257;61047;-39
2024/04/15 10:11:50;;;;;;;5.40;1.90;;;;;;;14.94;46.39;98772.88;107044;1255;62239;-39
2024/04/15 10:14:19;;;;;;;8.60;1.80;;;;;;;14.96;46.22;98763.27;107151;1262;75015;-39
2024/04/15 10:16:50;;;;;;;5.60;1.60;;;;;;;14.97;46.43;98754.59;107167;1256;70247;-39
2024/04/15 10:19:39;;;;;;;9.30;1.90;;;;;;;15.02;46.87;98744.11;107212;1260;74956;-39
2024/04/15 10:22:07;;;;;;;5.10;2.10;;;;;;;15.08;47.23;98756.53;107224;1257;60442;-38
2024/04/15 10:24:37;;;;;;;5.00;2.00;;;;;;;15.15;47.13;98752.48;107251;1257;61084;-38
2024/04/15 10:27:05;;;;;;;5.20;2.00;;;;;;;15.23;47.42;98763.26;107219;1257;74156;-38
2024/04/15 10:29:33;;;;;;;9.70;2.40;;;;;;;15.29;46.15;98751.73;107307;1256;67888;-39
2024/04/15 10:32:00;;;;;;;5.50;1.90;;;;;;;15.34;46.68;98741.23;107236;1257;72061;-38
2024/04/15 10:34:29;;;;;;;6.10;2.30;;;;;;;15.40;46.95;98737.89;107284;1256;61352;-38
2024/04/15 10:36:57;;;;;;;7.70;2.30;;;;;;;15.42;46.84;98743.16;107213;1257;61279;-39
2024/04/15 10:39:25;;;;;;;6.20;2.20;;;;;;;15.35;46.62;98757.67;107215;1257;72800;-39
2024/04/15 10:41:54;;;;;;;9.40;2.30;;;;;;;15.22;47.24;98773.40;107052;1257;69000;-39
2024/04/15 10:44:21;;;;;;;5.30;2.10;;;;;;;15.11;47.51;98766.95;107231;1257;74918;-39
2024/04/15 10:46:48;;;;;;;8.00;2.50;;;;;;;15.00;47.75;98791.61;107273;1254;61333;-39
2024/04/15 10:49:17;;;;;;;7.00;2.10;;;;;;;14.89;49.05;98792.41;107203;1254;61132;-39
2024/04/15 10:51:48;;;;;;;5.70;1.80;;;;;;;14.74;50.27;98799.69;107356;1254;73502;-39
2024/04/15 10:54:16;;;;;;;6.70;2.00;;;;;;;14.54;52.42;98808.46;107318;1254;66909;-39
2024/04/15 10:56:43;;;;;;;4.50;2.10;;;;;;;14.32;54.09;98816.05;107282;1254;73115;-39
2024/04/15 10:59:17;;;;;;;9.30;2.10;;;;;;;14.09;55.24;98818.40;107300;1254;61214;-39
2024/04/15 11:01:46;;;;;;;6.70;2.40;;;;;;;13.82;56.13;98814.29;107277;1255;61463;-39
2024/04/15 11:04:13;;;;;;;6.90;1.70;;;;;;;13.56;58.01;98816.91;107289;1255;73338;-39
2024/04/15 11:06:41;;;;;;;5.20;1.90;;;;;;;13.29;59.88;98818.90;107270;1260;66934;-39
2024/04/15 11:09:09;;;;;;;5.20;2.00;;;;;;;13.02;61.65;98803.95;107254;1254;71537;-39
2024/04/15 11:11:37;;;;;;;4.40;2.10;;;;;;;12.78;63.52;98813.19;107330;1257;61000;-38
2024/04/15 11:14:10;;;;;;;6.10;1.80;;;;;;;12.57;65.58;98825.19;107269;1255;60959;-39
2024/04/15 11:16:47;;;;;;;7.00;2.00;;;;;;;12.32;66.99;98850.67;107243;1255;76015;-39
2024/04/15 11:19:16;;;;;;;5.50;2.00;;;;;;;12.04;68.30;98877.11;107315;1254;68864;-39
2024/04/15 11:21:44;;;;;;;6.00;1.70;;;;;;;11.80;69.56;98876.58;107183;1254;73013;-39
2024/04/15 11:24:12;;;;;;;6.00;1.80;;;;;;;11.67;71.00;98866.85;107295;1254;62332;-39
2024/04/15 11:26:40;;;;;;;5.80;2.10;;;;;;;11.65;72.34;98853.19;107309;1254;61228;-39
2024/04/15 11:29:08;;;;;;;9.60;2.50;;;;;;;11.60;73.99;98844.08;107221;1262;75821;-39
2024/04/15 11:31:36;;;;;;;10.10;2.60;;;;;;;11.55;75.46;98818.45;107298;1254;68728;-39
2024/04/15 11:34:04;;;;;;;5.30;2.70;;;;;;;11.57;75.95;98817.84;107305;1254;71498;-39